Terminal Aerodrome Forecast
Issued by NWS Shreveport, LA

Home | Current Version | Previous Version | Text Only | Print | Product List | Glossary On
Versions: 1 2 3 4 5 6 7 8 9 10 11 12 13 14 15 16 17 18
000
FTUS44 KSHV 190500
TAFTXK
TAF
KTXK 190520Z 1906/2006 07005KT P6SM VCSH BKN050
     FM190800 VRB02KT 5SM BR OVC015
      TEMPO 1910/1914 2SM BR BKN006
     FM191700 10005KT P6SM SCT035=

USA.gov is the U.S. government's official web portal to all federal, state and local government web resources and services.